createdAt,value
2018-11-21T00:00:20.079Z,100487.81
2018-11-21T00:05:33.445Z,100523.58
2018-11-21T00:10:46.869Z,100491.55
2018-11-21T00:16:00.223Z,100490.91
2018-11-21T00:21:13.617Z,100486.27
2018-11-21T00:26:27.174Z,100536.77
2018-11-21T00:37:46.420Z,100553.38
2018-11-21T00:43:03.259Z,100505.31
2018-11-21T00:48:16.687Z,100535.42
2018-11-21T00:53:30.279Z,100519.28
2018-11-21T00:58:43.642Z,100498.02
2018-11-21T01:03:57.033Z,100547.09
2018-11-21T01:09:10.432Z,100554.52
2018-11-21T01:14:23.847Z,100532.52
2018-11-21T01:19:37.251Z,100577.70
2018-11-21T01:24:50.642Z,100598.16
2018-11-21T01:30:04.098Z,100571.14
2018-11-21T01:35:17.528Z,100578.31
2018-11-21T01:40:30.892Z,100577.55
2018-11-21T01:45:44.248Z,100608.30
2018-11-21T01:50:57.616Z,100574.47
2018-11-21T01:56:10.993Z,100592.51
2018-11-21T02:01:24.377Z,100628.35
2018-11-21T02:06:37.755Z,100626.87
2018-11-21T02:11:51.148Z,100594.14
2018-11-21T02:17:04.508Z,100593.79
2018-11-21T02:22:17.895Z,100590.63
2018-11-21T02:27:31.266Z,100584.20
2018-11-21T02:32:44.605Z,100640.09
2018-11-21T02:37:57.990Z,100633.13
2018-11-21T02:43:11.377Z,100654.08
2018-11-21T02:48:24.802Z,100634.77
2018-11-21T02:53:38.157Z,100631.09
2018-11-21T02:58:52.370Z,100647.23
2018-11-21T03:04:05.814Z,100666.95
2018-11-21T03:09:19.232Z,100653.22
2018-11-21T03:14:32.593Z,100677.94
2018-11-21T03:19:46.327Z,100646.42
2018-11-21T03:24:59.688Z,100668.20
2018-11-21T03:30:13.405Z,100676.52
2018-11-21T03:35:26.810Z,100680.47
2018-11-21T03:40:40.170Z,100698.52
2018-11-21T03:45:53.550Z,100688.75
2018-11-21T03:51:06.912Z,100743.89
2018-11-21T03:56:20.288Z,100704.59
2018-11-21T04:01:33.682Z,100688.78
2018-11-21T04:06:47.039Z,100693.48
2018-11-21T04:12:00.422Z,100695.94
2018-11-21T04:17:13.765Z,100714.09
2018-11-21T04:22:27.127Z,100715.11
2018-11-21T04:27:40.639Z,100718.85
2018-11-21T04:32:54.024Z,100740.55
2018-11-21T04:38:07.388Z,100733.94
2018-11-21T04:43:20.837Z,100747.09
2018-11-21T04:48:34.360Z,100731.27
2018-11-21T04:53:47.732Z,100773.14
2018-11-21T04:59:01.107Z,100792.41
2018-11-21T05:04:14.569Z,100776.83
2018-11-21T05:09:27.948Z,100801.00
2018-11-21T05:14:41.289Z,100768.13
2018-11-21T05:19:54.665Z,100808.59
2018-11-21T05:25:09.245Z,100765.00
2018-11-21T05:30:22.616Z,100767.20
2018-11-21T05:35:35.963Z,100780.77
2018-11-21T05:40:49.473Z,100816.91
2018-11-21T05:46:02.826Z,100799.30
2018-11-21T05:51:16.208Z,100809.73
2018-11-21T05:56:29.553Z,100826.90
2018-11-21T06:01:42.948Z,100825.58
2018-11-21T06:06:56.315Z,100870.49
2018-11-21T06:12:09.691Z,100876.95
2018-11-21T06:17:23.058Z,100874.80
2018-11-21T06:22:36.461Z,100840.26
2018-11-21T06:27:49.867Z,100891.95
2018-11-21T06:33:03.269Z,100864.64
2018-11-21T06:38:16.647Z,100907.29
2018-11-21T06:43:30.042Z,100882.75
2018-11-21T06:48:43.468Z,100871.48
2018-11-21T06:53:56.841Z,100890.06
2018-11-21T06:59:10.228Z,100899.91
2018-11-21T07:04:23.584Z,100902.90
2018-11-21T07:09:36.951Z,100905.20
2018-11-21T07:14:50.319Z,100960.98
2018-11-21T07:20:04.362Z,100913.55
2018-11-21T07:25:19.766Z,100923.64
2018-11-21T07:30:33.131Z,100963.39
2018-11-21T07:35:46.503Z,100946.44
2018-11-21T07:41:00.056Z,100942.65
2018-11-21T07:46:13.539Z,100972.06
2018-11-21T07:51:26.896Z,100981.78
2018-11-21T07:57:18.659Z,100967.21
2018-11-21T08:02:35.974Z,100999.41
2018-11-21T08:07:54.144Z,100982.45
2018-11-21T08:13:26.665Z,100982.34
2018-11-21T08:18:59.192Z,101008.93
2018-11-21T08:24:31.703Z,101009.30
2018-11-21T08:29:45.145Z,101011.34
2018-11-21T08:35:00.957Z,101031.90
2018-11-21T08:40:14.317Z,101012.75
2018-11-21T08:45:27.675Z,101012.69
2018-11-21T08:50:41.042Z,101041.40
2018-11-21T08:55:54.404Z,101072.63
2018-11-21T09:01:07.791Z,101061.72
2018-11-21T09:06:21.167Z,101074.56
2018-11-21T09:11:34.488Z,101070.09
2018-11-21T09:16:47.889Z,101036.72
2018-11-21T09:22:01.240Z,101103.67
2018-11-21T09:27:14.602Z,101097.94
2018-11-21T09:32:28.161Z,101128.05
2018-11-21T09:37:41.525Z,101112.31
2018-11-21T09:42:55.895Z,101128.47
2018-11-21T09:48:09.260Z,101092.16
2018-11-21T09:53:22.609Z,101119.50
2018-11-21T09:58:35.977Z,101117.66
2018-11-21T10:03:49.364Z,101143.53
2018-11-21T10:09:07.435Z,101147.20
2018-11-21T10:14:20.909Z,101124.81
2018-11-21T10:19:34.444Z,101095.08
2018-11-21T10:24:47.785Z,101127.62
2018-11-21T10:30:01.198Z,101098.20
2018-11-21T10:35:14.600Z,101131.93
2018-11-21T10:40:27.958Z,101121.75
2018-11-21T10:45:41.434Z,101126.47
2018-11-21T10:50:54.798Z,101130.25
2018-11-21T10:56:00.905Z,101124.83
2018-11-21T11:01:33.418Z,101148.96
2018-11-21T11:07:05.953Z,101159.45
2018-11-21T11:12:38.468Z,101165.80
2018-11-21T11:18:10.993Z,101150.30
2018-11-21T11:23:43.516Z,101130.79
2018-11-21T11:29:16.024Z,101134.86
2018-11-21T11:34:48.548Z,101132.41
2018-11-21T11:40:21.078Z,101170.84
2018-11-21T11:45:53.671Z,101139.05
2018-11-21T11:51:26.209Z,101145.86
2018-11-21T11:56:58.787Z,101141.09
2018-11-21T12:02:31.298Z,101163.30
2018-11-21T12:08:03.850Z,101136.48
2018-11-21T12:13:36.340Z,101176.17
2018-11-21T12:19:08.882Z,101133.00
2018-11-21T12:24:41.467Z,101187.45
2018-11-21T12:30:14.167Z,101173.22
2018-11-21T12:35:46.839Z,101135.22
2018-11-21T12:41:19.370Z,101142.36
2018-11-21T12:46:52.167Z,101131.63
2018-11-21T12:52:24.904Z,101154.30
2018-11-21T12:57:57.464Z,101162.41
2018-11-21T13:03:29.990Z,101165.08
2018-11-21T13:08:48.663Z,101126.85
2018-11-21T13:14:21.177Z,101149.88
2018-11-21T13:19:53.675Z,101175.91
2018-11-21T13:25:26.227Z,101144.98
2018-11-21T13:30:46.842Z,101158.83
2018-11-21T13:36:19.352Z,101147.38
2018-11-21T13:41:51.845Z,101124.58
2018-11-21T13:47:24.402Z,101145.43
2018-11-21T13:52:56.930Z,101187.81
2018-11-21T13:58:10.314Z,101189.08
2018-11-21T14:03:23.703Z,101173.88
2018-11-21T14:08:37.076Z,101151.80
2018-11-21T14:13:50.474Z,101186.56
2018-11-21T14:19:04.127Z,101194.41
2018-11-21T14:24:17.527Z,101216.11
2018-11-21T14:29:30.890Z,101192.75
2018-11-21T14:34:45.175Z,101185.95
2018-11-21T14:39:58.560Z,101220.25
2018-11-21T14:45:13.371Z,101194.21
2018-11-21T14:50:28.979Z,101229.06
2018-11-21T14:55:42.349Z,101232.45
2018-11-21T15:00:55.740Z,101227.36
2018-11-21T15:06:09.125Z,101243.45
2018-11-21T15:11:22.505Z,101203.91
2018-11-21T15:16:36.958Z,101231.05
2018-11-21T15:21:49.246Z,101250.03
2018-11-21T15:27:02.610Z,101241.38
2018-11-21T15:32:16.018Z,101250.94
2018-11-21T15:37:29.394Z,101222.70
2018-11-21T15:42:42.937Z,101264.22
2018-11-21T15:47:58.310Z,101265.81
2018-11-21T15:53:11.716Z,101233.33
2018-11-21T15:58:25.044Z,101222.48
2018-11-21T16:03:38.606Z,101274.19
2018-11-21T16:08:52.349Z,101274.09
2018-11-21T16:14:06.097Z,101282.46
2018-11-21T16:19:19.507Z,101284.06
2018-11-21T16:24:32.856Z,101282.67
2018-11-21T16:29:46.263Z,101260.67
2018-11-21T16:34:59.706Z,101253.19
2018-11-21T16:40:16.103Z,101301.36
2018-11-21T16:45:31.205Z,101314.66
2018-11-21T16:50:44.928Z,101277.18
2018-11-21T16:55:58.448Z,101312.88
2018-11-21T17:01:11.878Z,101294.52
2018-11-21T17:06:25.253Z,101289.40
2018-11-21T17:11:38.971Z,101337.13
2018-11-21T17:16:52.349Z,101308.56
2018-11-21T17:22:10.474Z,101331.58
2018-11-21T17:27:22.229Z,101325.20
2018-11-21T17:32:36.071Z,101345.48
2018-11-21T17:37:49.826Z,101311.08
2018-11-21T17:43:03.217Z,101333.99
2018-11-21T17:48:16.621Z,101348.44
2018-11-21T17:53:30.904Z,101310.68
2018-11-21T17:58:44.281Z,101315.30
2018-11-21T18:03:57.646Z,101350.92
2018-11-21T18:09:12.387Z,101341.66
2018-11-21T18:14:25.735Z,101322.68
2018-11-21T18:19:39.158Z,101357.58
2018-11-21T18:24:52.540Z,101354.79
2018-11-21T18:30:09.197Z,101379.55
2018-11-21T18:35:23.377Z,101376.59
2018-11-21T18:40:36.742Z,101385.81
2018-11-21T18:45:51.088Z,101376.57
2018-11-21T18:51:05.170Z,101391.70
2018-11-21T18:56:23.069Z,101354.52
2018-11-21T19:01:36.480Z,101394.23
2018-11-21T19:06:49.861Z,101399.36
2018-11-21T19:12:03.214Z,101370.09
2018-11-21T19:17:16.573Z,101393.26
2018-11-21T19:22:29.949Z,101394.94
2018-11-21T19:27:43.622Z,101361.50
2018-11-21T19:32:56.990Z,101349.09
2018-11-21T19:38:10.378Z,101350.42
2018-11-21T19:43:24.157Z,101351.09
2018-11-21T19:48:37.118Z,101391.42
2018-11-21T19:53:50.515Z,101367.20
2018-11-21T19:59:03.912Z,101360.32
2018-11-21T20:04:17.341Z,101365.87
2018-11-21T20:09:30.776Z,101372.34
2018-11-21T20:14:44.157Z,101379.75
2018-11-21T20:19:57.580Z,101370.75
2018-11-21T20:25:12.643Z,101403.04
2018-11-21T20:30:45.188Z,101377.47
2018-11-21T20:35:58.584Z,101374.42
2018-11-21T20:41:11.962Z,101405.48
2018-11-21T20:46:25.355Z,101408.98
2018-11-21T20:51:38.753Z,101370.91
2018-11-21T20:56:52.137Z,101373.23
2018-11-21T21:02:05.532Z,101382.91
2018-11-21T21:07:22.493Z,101382.66
2018-11-21T21:12:32.309Z,101369.52
2018-11-21T21:17:46.696Z,101380.33
2018-11-21T21:23:00.066Z,101398.53
2018-11-21T21:28:13.447Z,101365.17
2018-11-21T21:33:26.794Z,101395.81
2018-11-21T21:38:40.161Z,101388.64
2018-11-21T21:43:53.545Z,101387.59
2018-11-21T21:49:06.949Z,101387.34
2018-11-21T21:54:20.325Z,101394.61
2018-11-21T21:59:33.693Z,101359.40
2018-11-21T22:04:47.055Z,101397.13
2018-11-21T22:10:01.287Z,101373.37
2018-11-21T22:15:34.582Z,101353.41
2018-11-21T22:20:48.836Z,101399.33
2018-11-21T22:31:35.869Z,101375.30
2018-11-21T22:36:49.288Z,101406.83
2018-11-21T22:42:02.679Z,101364.73
2018-11-21T22:47:16.129Z,101410.03
2018-11-21T22:52:29.572Z,101369.78
2018-11-21T22:57:43.685Z,101390.97
2018-11-21T23:02:57.041Z,101387.20
2018-11-21T23:08:04.087Z,101377.45
2018-11-21T23:13:17.503Z,101395.83
2018-11-21T23:18:30.863Z,101383.52
2018-11-21T23:23:44.222Z,101365.25
2018-11-21T23:28:57.585Z,101390.16
2018-11-21T23:34:10.961Z,101403.91
2018-11-21T23:39:24.316Z,101404.13
2018-11-21T23:44:37.680Z,101404.56
2018-11-21T23:49:51.039Z,101377.22
2018-11-21T23:55:04.997Z,101390.30
